Time;durP1;ratioP1;P1;durP2;ratioP2;P2;SDS_P1;SDS_P2;PMS_P1;PMS_P2;Temp;Humidity;BMP_temperature;BMP_pressure;BME280_temperature;BME280_humidity;BME280_pressure;Samples;Min_cycle;Max_cycle;Signal;HPM_P1;HPM_P2
2022/08/29 00:00:50;;;;;;;;;2.33;1.33;;;;;;;;5024012;28;61842;-75
2022/08/29 00:03:15;;;;;;;;;0.33;0.00;;;;;;;;5022789;28;62103;-75
2022/08/29 00:05:40;;;;;;;;;1.00;1.00;;;;;;;;5023550;28;62192;-75
2022/08/29 00:08:05;;;;;;;;;0.67;0.67;;;;;;;;5023725;28;61801;-75
2022/08/29 00:10:32;;;;;;;;;0.00;0.00;;;;;;;;5023949;28;62033;-75
2022/08/29 00:12:57;;;;;;;;;3.67;0.33;;;;;;;;5023769;28;62056;-75
2022/08/29 00:15:22;;;;;;;;;1.00;0.67;;;;;;;;5023016;28;62786;-74
2022/08/29 00:17:48;;;;;;;;;0.67;0.67;;;;;;;;5022402;28;61957;-74
2022/08/29 00:20:15;;;;;;;;;0.00;0.00;;;;;;;;5022137;28;61769;-75
2022/08/29 00:22:40;;;;;;;;;0.00;0.00;;;;;;;;5022679;28;62296;-74
2022/08/29 00:25:06;;;;;;;;;0.33;0.33;;;;;;;;5020944;28;63788;-75
2022/08/29 00:27:32;;;;;;;;;0.00;0.00;;;;;;;;5023584;28;61824;-74
2022/08/29 00:29:57;;;;;;;;;3.00;1.00;;;;;;;;5023187;28;62016;-74
2022/08/29 00:32:22;;;;;;;;;0.00;0.00;;;;;;;;5022332;28;61849;-75
2022/08/29 00:34:47;;;;;;;;;1.00;1.00;;;;;;;;5022834;28;61858;-74
2022/08/29 00:37:13;;;;;;;;;0.67;0.33;;;;;;;;5021969;28;62154;-74
2022/08/29 00:39:38;;;;;;;;;0.00;0.00;;;;;;;;5023373;28;61915;-75
2022/08/29 00:42:04;;;;;;;;;0.00;0.00;;;;;;;;5023394;28;61828;-74
2022/08/29 00:44:29;;;;;;;;;1.67;0.00;;;;;;;;5022509;28;62257;-75
2022/08/29 00:46:56;;;;;;;;;0.00;0.00;;;;;;;;5021677;28;61973;-74
2022/08/29 00:49:27;;;;;;;;;1.00;1.00;;;;;;;;5021295;28;61759;-75
2022/08/29 00:51:53;;;;;;;;;1.00;0.00;;;;;;;;5022068;28;61954;-74
2022/08/29 00:54:21;;;;;;;;;1.67;1.00;;;;;;;;5020734;28;64039;-75
2022/08/29 00:56:46;;;;;;;;;0.00;0.00;;;;;;;;5021637;28;61846;-74
2022/08/29 00:59:11;;;;;;;;;1.67;1.67;;;;;;;;5021038;28;62447;-74
2022/08/29 01:01:37;;;;;;;;;4.67;1.00;;;;;;;;5023288;28;61992;-74
2022/08/29 01:04:03;;;;;;;;;1.00;1.00;;;;;;;;5020254;28;65115;-75
2022/08/29 01:06:30;;;;;;;;;0.67;0.67;;;;;;;;5021639;28;61835;-75
2022/08/29 01:08:55;;;;;;;;;1.00;1.00;;;;;;;;5022692;28;61828;-75
2022/08/29 01:14:05;;;;;;;;;0.00;0.00;;;;;;;;5021792;28;62275;-75
2022/08/29 01:16:31;;;;;;;;;1.33;0.00;;;;;;;;5021231;28;61767;-75
2022/08/29 01:18:59;;;;;;;;;1.67;0.67;;;;;;;;5022890;28;61922;-75
2022/08/29 01:21:33;;;;;;;;;1.67;0.00;;;;;;;;5021098;28;62212;-75
2022/08/29 01:23:58;;;;;;;;;0.33;0.33;;;;;;;;5020126;28;63827;-74
2022/08/29 01:26:27;;;;;;;;;2.00;0.33;;;;;;;;5022473;28;61885;-74
2022/08/29 01:28:53;;;;;;;;;0.75;0.75;;;;;;;;5020886;28;62075;-74
2022/08/29 01:31:21;;;;;;;;;0.67;0.67;;;;;;;;5021167;28;61909;-74
2022/08/29 01:33:48;;;;;;;;;0.00;0.00;;;;;;;;5021815;28;61861;-74
2022/08/29 01:36:16;;;;;;;;;1.00;1.00;;;;;;;;5022379;28;61669;-74
2022/08/29 01:38:41;;;;;;;;;2.00;1.00;;;;;;;;5020724;28;61841;-74
2022/08/29 01:41:08;;;;;;;;;1.33;0.00;;;;;;;;5022683;28;62435;-74
2022/08/29 01:43:38;;;;;;;;;0.00;0.00;;;;;;;;5020110;28;63670;-74
2022/08/29 01:46:03;;;;;;;;;0.00;0.00;;;;;;;;5022338;28;61966;-75
2022/08/29 01:48:29;;;;;;;;;1.00;1.00;;;;;;;;5022245;28;61904;-75
2022/08/29 01:50:55;;;;;;;;;1.67;0.00;;;;;;;;5022353;28;61671;-75
2022/08/29 01:53:20;;;;;;;;;0.00;0.00;;;;;;;;5021080;28;61831;-75
2022/08/29 01:55:46;;;;;;;;;0.00;0.00;;;;;;;;5022207;28;62025;-75
2022/08/29 01:58:11;;;;;;;;;1.33;1.33;;;;;;;;5020548;28;62480;-74
2022/08/29 02:00:38;;;;;;;;;1.67;0.67;;;;;;;;5022389;28;61863;-75
2022/08/29 02:03:04;;;;;;;;;0.00;0.00;;;;;;;;5018429;28;63125;-74
2022/08/29 02:05:29;;;;;;;;;1.33;1.33;;;;;;;;5020828;28;61862;-74
2022/08/29 02:07:55;;;;;;;;;0.00;0.00;;;;;;;;5020607;28;61960;-74
2022/08/29 02:10:21;;;;;;;;;0.00;0.00;;;;;;;;5020709;28;61996;-74
2022/08/29 02:12:46;;;;;;;;;0.67;0.67;;;;;;;;5020443;28;61927;-74
2022/08/29 02:15:12;;;;;;;;;1.00;1.00;;;;;;;;5024427;28;61955;-74
2022/08/29 02:17:37;;;;;;;;;2.00;0.67;;;;;;;;5023946;28;61699;-75
2022/08/29 02:20:07;;;;;;;;;0.00;0.00;;;;;;;;5024184;28;62066;-74
2022/08/29 02:22:33;;;;;;;;;3.00;1.00;;;;;;;;5023250;28;64867;-74
2022/08/29 02:24:58;;;;;;;;;3.00;1.00;;;;;;;;5025099;28;61856;-74
2022/08/29 02:27:23;;;;;;;;;0.00;0.00;;;;;;;;5025246;28;61986;-74
2022/08/29 02:29:49;;;;;;;;;0.00;0.00;;;;;;;;5025578;28;62264;-74
2022/08/29 02:32:15;;;;;;;;;1.67;0.00;;;;;;;;5024978;28;61790;-74
2022/08/29 02:34:44;;;;;;;;;0.25;0.00;;;;;;;;5023888;28;62054;-75
2022/08/29 02:37:10;;;;;;;;;0.67;0.67;;;;;;;;5023896;28;62007;-74
2022/08/29 02:39:35;;;;;;;;;0.00;0.00;;;;;;;;5025256;28;61774;-74
2022/08/29 02:42:01;;;;;;;;;1.00;0.67;;;;;;;;5024623;28;63151;-74
2022/08/29 02:44:26;;;;;;;;;0.33;0.33;;;;;;;;5025036;28;61779;-74
2022/08/29 02:46:52;;;;;;;;;1.00;1.00;;;;;;;;5023794;28;62482;-74
2022/08/29 02:49:17;;;;;;;;;0.33;0.33;;;;;;;;5025150;28;61990;-75
2022/08/29 02:51:43;;;;;;;;;0.00;0.00;;;;;;;;5024225;28;61941;-74
2022/08/29 02:54:08;;;;;;;;;0.75;0.00;;;;;;;;5024843;28;61799;-74
2022/08/29 02:56:33;;;;;;;;;0.67;0.67;;;;;;;;5024974;28;61840;-75
2022/08/29 02:59:00;;;;;;;;;2.00;1.00;;;;;;;;5023585;28;62202;-74
2022/08/29 03:01:25;;;;;;;;;1.33;0.00;;;;;;;;5024320;28;62120;-74
2022/08/29 03:03:51;;;;;;;;;0.00;0.00;;;;;;;;5023038;28;61759;-75
2022/08/29 03:06:17;;;;;;;;;0.25;0.25;;;;;;;;5023542;28;61837;-74
2022/08/29 03:08:43;;;;;;;;;0.00;0.00;;;;;;;;5024780;28;62368;-74
2022/08/29 03:11:08;;;;;;;;;0.25;0.25;;;;;;;;5022599;28;63783;-75
2022/08/29 03:13:33;;;;;;;;;0.00;0.00;;;;;;;;5024359;28;61680;-74
2022/08/29 03:16:01;;;;;;;;;0.00;0.00;;;;;;;;5024615;28;61853;-74
2022/08/29 03:18:26;;;;;;;;;0.00;0.00;;;;;;;;5023254;28;62101;-75
2022/08/29 03:20:52;;;;;;;;;2.00;2.00;;;;;;;;5022087;28;63754;-74
2022/08/29 03:23:17;;;;;;;;;2.33;0.67;;;;;;;;5024088;28;61838;-74
2022/08/29 03:25:42;;;;;;;;;2.25;2.25;;;;;;;;5022292;28;61975;-75
2022/08/29 03:28:08;;;;;;;;;2.00;1.00;;;;;;;;5024602;28;61912;-75
2022/08/29 03:30:33;;;;;;;;;4.00;2.00;;;;;;;;5022186;28;63817;-74
2022/08/29 03:32:58;;;;;;;;;0.00;0.00;;;;;;;;5024087;28;61697;-75
2022/08/29 03:35:23;;;;;;;;;0.50;0.50;;;;;;;;5023109;28;61778;-74
2022/08/29 03:37:49;;;;;;;;;1.00;1.00;;;;;;;;5024417;28;61842;-75
2022/08/29 03:40:15;;;;;;;;;0.50;0.00;;;;;;;;5023859;28;63032;-75
2022/08/29 03:42:41;;;;;;;;;1.00;1.00;;;;;;;;5024282;28;61822;-74
2022/08/29 03:45:08;;;;;;;;;0.67;0.67;;;;;;;;5023907;28;61862;-75
2022/08/29 03:47:33;;;;;;;;;0.25;0.25;;;;;;;;5024080;28;61859;-75
2022/08/29 03:49:59;;;;;;;;;0.33;0.33;;;;;;;;5023275;28;62113;-74
2022/08/29 03:52:24;;;;;;;;;0.25;0.25;;;;;;;;5024388;28;61838;-74
2022/08/29 03:54:49;;;;;;;;;1.00;1.00;;;;;;;;5023823;28;61838;-74
2022/08/29 03:57:14;;;;;;;;;2.50;1.00;;;;;;;;5022592;28;61849;-75
2022/08/29 03:59:41;;;;;;;;;3.25;0.75;;;;;;;;5023441;28;62084;-74
2022/08/29 04:02:07;;;;;;;;;0.50;0.00;;;;;;;;5023947;28;62077;-74
2022/08/29 04:07:16;;;;;;;;;0.50;0.50;;;;;;;;5023995;28;61958;-75
2022/08/29 04:09:41;;;;;;;;;2.50;0.75;;;;;;;;5021955;28;64125;-74
2022/08/29 04:12:10;;;;;;;;;5.00;1.00;;;;;;;;5023654;28;62037;-74
2022/08/29 04:14:35;;;;;;;;;1.75;1.25;;;;;;;;5022246;28;61849;-74
2022/08/29 04:17:03;;;;;;;;;1.00;1.00;;;;;;;;5022113;28;62228;-75
2022/08/29 04:19:28;;;;;;;;;1.00;1.00;;;;;;;;5023147;28;61946;-74
2022/08/29 04:21:53;;;;;;;;;1.25;0.25;;;;;;;;5022142;28;61841;-74
2022/08/29 04:24:19;;;;;;;;;2.50;0.75;;;;;;;;5023398;28;62052;-74
2022/08/29 04:26:44;;;;;;;;;3.25;0.50;;;;;;;;5022459;28;61767;-74
2022/08/29 04:29:10;;;;;;;;;1.00;0.00;;;;;;;;5021068;28;64640;-74
2022/08/29 04:31:36;;;;;;;;;1.00;1.00;;;;;;;;5022027;28;61830;-74
2022/08/29 04:34:03;;;;;;;;;2.00;1.00;;;;;;;;5023159;28;61736;-74
2022/08/29 04:36:29;;;;;;;;;1.00;1.00;;;;;;;;5022033;28;61831;-74
2022/08/29 04:38:56;;;;;;;;;1.00;0.67;;;;;;;;5020421;28;63347;-74
2022/08/29 04:41:26;;;;;;;;;2.75;0.50;;;;;;;;5023229;28;62000;-75
2022/08/29 04:43:51;;;;;;;;;1.00;1.00;;;;;;;;5021843;28;62008;-74
2022/08/29 04:46:17;;;;;;;;;1.00;1.00;;;;;;;;5022979;28;61746;-74
2022/08/29 04:48:42;;;;;;;;;1.50;1.00;;;;;;;;5021113;28;64794;-75
2022/08/29 04:51:08;;;;;;;;;0.50;0.50;;;;;;;;5021624;28;61992;-75
2022/08/29 04:53:33;;;;;;;;;1.75;1.75;;;;;;;;5022204;28;61794;-74
2022/08/29 04:56:00;;;;;;;;;2.00;0.25;;;;;;;;5023345;28;61750;-74
2022/08/29 04:58:26;;;;;;;;;1.00;1.00;;;;;;;;5020676;28;64019;-74
2022/08/29 05:00:51;;;;;;;;;2.75;1.00;;;;;;;;5022142;28;61880;-75
2022/08/29 05:03:17;;;;;;;;;2.00;2.00;;;;;;;;5022097;28;61752;-74
2022/08/29 05:05:42;;;;;;;;;1.00;1.00;;;;;;;;5021178;28;61909;-74
2022/08/29 05:08:07;;;;;;;;;2.00;0.75;;;;;;;;5020123;28;63538;-74
2022/08/29 05:10:33;;;;;;;;;2.25;1.00;;;;;;;;5022289;28;61921;-73
2022/08/29 05:12:58;;;;;;;;;1.25;0.75;;;;;;;;5021880;28;61993;-73
2022/08/29 05:15:23;;;;;;;;;1.50;1.50;;;;;;;;5020331;28;61830;-73
2022/08/29 05:17:49;;;;;;;;;0.00;0.00;;;;;;;;5021744;28;61872;-73
2022/08/29 05:20:15;;;;;;;;;1.25;1.00;;;;;;;;5021736;28;61848;-73
2022/08/29 05:22:41;;;;;;;;;0.67;0.67;;;;;;;;5022105;28;62103;-73
2022/08/29 05:25:07;;;;;;;;;1.50;1.00;;;;;;;;5022209;28;61758;-73
2022/08/29 05:27:32;;;;;;;;;2.50;1.00;;;;;;;;5021241;28;62736;-73
2022/08/29 05:29:58;;;;;;;;;0.50;0.50;;;;;;;;5021184;28;61941;-73
2022/08/29 05:32:23;;;;;;;;;0.50;0.50;;;;;;;;5020662;28;61921;-73
2022/08/29 05:34:48;;;;;;;;;3.50;1.00;;;;;;;;5022220;28;61921;-73
2022/08/29 05:37:17;;;;;;;;;1.75;1.00;;;;;;;;5021098;28;61803;-73
2022/08/29 05:39:42;;;;;;;;;3.00;1.00;;;;;;;;5020658;28;61934;-73
2022/08/29 05:42:09;;;;;;;;;3.00;1.25;;;;;;;;5020518;28;62958;-73
2022/08/29 05:44:35;;;;;;;;;5.50;1.75;;;;;;;;5021297;28;61964;-74
2022/08/29 05:47:00;;;;;;;;;1.00;0.50;;;;;;;;5021060;28;62013;-74
2022/08/29 05:49:26;;;;;;;;;1.50;0.50;;;;;;;;5021165;28;61881;-74
2022/08/29 05:51:52;;;;;;;;;3.00;1.50;;;;;;;;5020315;28;61885;-74
2022/08/29 05:54:17;;;;;;;;;0.00;0.00;;;;;;;;5021847;28;62012;-74
2022/08/29 05:56:42;;;;;;;;;4.00;2.00;;;;;;;;5021501;28;61935;-73
2022/08/29 05:59:10;;;;;;;;;1.50;1.00;;;;;;;;5021560;28;61903;-73
2022/08/29 06:01:35;;;;;;;;;3.25;1.75;;;;;;;;5020835;28;61831;-73
2022/08/29 06:04:00;;;;;;;;;2.25;1.00;;;;;;;;5021721;28;61714;-74
2022/08/29 06:06:26;;;;;;;;;0.00;0.00;;;;;;;;5019628;28;63608;-73
2022/08/29 06:08:53;;;;;;;;;3.25;1.00;;;;;;;;5020172;28;61941;-74
2022/08/29 06:11:20;;;;;;;;;3.00;1.00;;;;;;;;5021912;28;61763;-74
2022/08/29 06:13:45;;;;;;;;;1.00;1.00;;;;;;;;5019823;28;61707;-74
2022/08/29 06:16:11;;;;;;;;;2.25;1.00;;;;;;;;5019482;28;64533;-73
2022/08/29 06:18:36;;;;;;;;;1.50;0.25;;;;;;;;5021320;28;61921;-73
2022/08/29 06:21:03;;;;;;;;;1.00;1.00;;;;;;;;5021670;28;61768;-73
2022/08/29 06:23:28;;;;;;;;;2.00;0.75;;;;;;;;5021922;28;62097;-73
2022/08/29 06:25:54;;;;;;;;;4.25;0.75;;;;;;;;5019780;28;63637;-72
2022/08/29 06:28:20;;;;;;;;;1.00;0.00;;;;;;;;5019931;28;61942;-73
2022/08/29 06:30:45;;;;;;;;;5.75;1.50;;;;;;;;5019876;28;62394;-73
2022/08/29 06:33:10;;;;;;;;;1.00;0.00;;;;;;;;5022080;28;61865;-73
2022/08/29 06:35:36;;;;;;;;;1.00;1.00;;;;;;;;5021321;28;63438;-73
2022/08/29 06:38:01;;;;;;;;;1.00;1.00;;;;;;;;5020188;28;61988;-73
2022/08/29 06:40:26;;;;;;;;;1.00;1.00;;;;;;;;5021807;28;61754;-73
2022/08/29 06:42:51;;;;;;;;;2.00;2.00;;;;;;;;5019995;28;61874;-73
2022/08/29 06:45:17;;;;;;;;;1.50;1.00;;;;;;;;5020661;28;63130;-73
2022/08/29 06:47:44;;;;;;;;;2.00;1.00;;;;;;;;5021392;28;61793;-73
2022/08/29 06:50:09;;;;;;;;;1.75;1.00;;;;;;;;5020034;28;61807;-73
2022/08/29 06:52:35;;;;;;;;;0.25;0.25;;;;;;;;5020125;28;62036;-73
2022/08/29 06:55:00;;;;;;;;;0.00;0.00;;;;;;;;5020797;28;61697;-73
2022/08/29 06:57:26;;;;;;;;;0.00;0.00;;;;;;;;5019867;28;61748;-74
2022/08/29 06:59:51;;;;;;;;;1.75;0.75;;;;;;;;5020875;28;61727;-73
2022/08/29 07:02:16;;;;;;;;;1.00;0.67;;;;;;;;5023162;28;61843;-73
2022/08/29 07:04:41;;;;;;;;;1.00;0.00;;;;;;;;5022608;28;64800;-73
2022/08/29 07:07:07;;;;;;;;;1.33;1.00;;;;;;;;5023346;28;61889;-74
2022/08/29 07:09:32;;;;;;;;;0.67;0.67;;;;;;;;5024706;28;61799;-73
2022/08/29 07:11:58;;;;;;;;;1.33;0.00;;;;;;;;5023015;28;61923;-73
2022/08/29 07:14:23;;;;;;;;;0.67;0.67;;;;;;;;5022462;28;65032;-74
2022/08/29 07:16:48;;;;;;;;;1.00;0.67;;;;;;;;5024566;28;61843;-74
2022/08/29 07:19:13;;;;;;;;;0.00;0.00;;;;;;;;5023079;28;61897;-74
2022/08/29 07:21:39;;;;;;;;;1.00;1.00;;;;;;;;5024295;28;62172;-74
2022/08/29 07:24:04;;;;;;;;;0.67;0.67;;;;;;;;5021756;28;62782;-74
2022/08/29 07:26:37;;;;;;;;;3.33;1.00;;;;;;;;5022878;28;62000;-76
2022/08/29 07:29:05;;;;;;;;;1.00;1.00;;;;;;;;5024087;28;61922;-73
2022/08/29 07:31:32;;;;;;;;;2.33;2.33;;;;;;;;5022982;28;61700;-73
2022/08/29 07:33:57;;;;;;;;;2.00;1.00;;;;;;;;5023550;28;61961;-73
2022/08/29 07:36:23;;;;;;;;;2.00;0.67;;;;;;;;5024382;28;62030;-74
2022/08/29 07:38:48;;;;;;;;;2.00;2.00;;;;;;;;5024178;28;62087;-73
2022/08/29 07:41:13;;;;;;;;;2.67;1.33;;;;;;;;5024102;28;61950;-74
2022/08/29 07:43:39;;;;;;;;;0.67;0.67;;;;;;;;5023509;28;62013;-74
2022/08/29 07:46:05;;;;;;;;;0.00;0.00;;;;;;;;5022597;28;62111;-74
2022/08/29 07:48:31;;;;;;;;;2.67;1.00;;;;;;;;5022720;28;62006;-74
2022/08/29 07:50:56;;;;;;;;;1.00;1.00;;;;;;;;5023970;28;61837;-73
2022/08/29 07:53:21;;;;;;;;;1.00;0.00;;;;;;;;5021844;28;63994;-73
2022/08/29 07:55:46;;;;;;;;;1.00;1.00;;;;;;;;5024040;28;62090;-73
2022/08/29 07:58:11;;;;;;;;;1.00;1.00;;;;;;;;5021688;28;62291;-74
2022/08/29 08:00:37;;;;;;;;;2.67;0.67;;;;;;;;5021867;28;61776;-74
2022/08/29 08:03:02;;;;;;;;;1.67;1.67;;;;;;;;5022842;28;62107;-74
2022/08/29 08:05:28;;;;;;;;;1.00;1.00;;;;;;;;5021979;28;62010;-73
2022/08/29 08:07:53;;;;;;;;;3.00;2.00;;;;;;;;5023375;28;61746;-74
2022/08/29 08:10:19;;;;;;;;;2.33;0.67;;;;;;;;5022986;28;62204;-74
2022/08/29 08:12:48;;;;;;;;;0.75;0.75;;;;;;;;5021081;28;64649;-74
2022/08/29 08:15:14;;;;;;;;;1.67;0.67;;;;;;;;5022937;28;62269;-74
2022/08/29 08:17:40;;;;;;;;;2.25;1.50;;;;;;;;5022123;28;61691;-75
2022/08/29 08:20:08;;;;;;;;;0.67;0.67;;;;;;;;5023533;28;61871;-75
2022/08/29 08:22:34;;;;;;;;;1.67;1.00;;;;;;;;5023131;28;61853;-75
2022/08/29 08:24:59;;;;;;;;;1.00;1.00;;;;;;;;5021633;28;61968;-76
2022/08/29 08:27:25;;;;;;;;;2.00;2.00;;;;;;;;5021958;28;61738;-74
2022/08/29 08:29:50;;;;;;;;;2.00;1.00;;;;;;;;5023490;28;62572;-74
2022/08/29 08:32:15;;;;;;;;;1.75;1.75;;;;;;;;5022795;28;61751;-74
2022/08/29 08:34:41;;;;;;;;;1.00;1.00;;;;;;;;5021881;28;61857;-74
2022/08/29 08:37:07;;;;;;;;;1.33;1.33;;;;;;;;5023632;28;61750;-74
2022/08/29 08:39:33;;;;;;;;;1.33;1.33;;;;;;;;5023096;28;62056;-74
2022/08/29 08:41:58;;;;;;;;;1.33;1.00;;;;;;;;5022775;28;61858;-74
2022/08/29 08:44:23;;;;;;;;;3.00;2.00;;;;;;;;5022908;28;62009;-74
2022/08/29 08:46:57;;;;;;;;;1.67;1.67;;;;;;;;5023231;28;61881;-74
2022/08/29 08:49:25;;;;;;;;;3.33;1.00;;;;;;;;5023053;28;61756;-75
2022/08/29 08:51:57;;;;;;;;;1.00;1.00;;;;;;;;5022133;28;63250;-74
2022/08/29 08:54:25;;;;;;;;;2.67;1.00;;;;;;;;5022363;28;61830;-75
2022/08/29 08:57:12;;;;;;;;;1.00;1.00;;;;;;;;5054504;28;61988;-76
2022/08/29 08:59:42;;;;;;;;;1.00;1.00;;;;;;;;5037578;28;62138;-75
2022/08/29 09:02:16;;;;;;;;;1.33;0.33;;;;;;;;5021024;28;63555;-74
2022/08/29 09:05:02;;;;;;;;;3.00;2.00;;;;;;;;5021515;28;61861;-75
2022/08/29 09:07:41;;;;;;;;;1.00;1.00;;;;;;;;5022144;28;61803;-75
2022/08/29 09:10:27;;;;;;;;;0.67;0.67;;;;;;;;5021591;28;61829;-75
2022/08/29 09:12:58;;;;;;;;;1.00;1.00;;;;;;;;5022271;28;62487;-75
2022/08/29 09:15:29;;;;;;;;;0.67;0.67;;;;;;;;5020939;28;61968;-75
2022/08/29 09:17:59;;;;;;;;;2.00;1.00;;;;;;;;5022654;28;61751;-74
2022/08/29 09:20:27;;;;;;;;;2.00;2.00;;;;;;;;5022724;28;61672;-74
2022/08/29 09:23:05;;;;;;;;;2.67;1.00;;;;;;;;5020025;28;64694;-75
2022/08/29 09:25:34;;;;;;;;;1.00;1.00;;;;;;;;5022319;28;62029;-75
2022/08/29 09:28:00;;;;;;;;;2.33;1.33;;;;;;;;5020931;28;61898;-75
2022/08/29 09:30:27;;;;;;;;;1.67;1.33;;;;;;;;5022334;28;61925;-75
2022/08/29 09:32:55;;;;;;;;;2.00;2.00;;;;;;;;5022250;28;61815;-75
2022/08/29 09:35:24;;;;;;;;;2.00;2.00;;;;;;;;5020902;28;61854;-75
2022/08/29 09:38:00;;;;;;;;;3.67;2.33;;;;;;;;5022677;28;61779;-74
2022/08/29 09:40:39;;;;;;;;;5.00;2.67;;;;;;;;5021224;28;62236;-74
2022/08/29 09:43:06;;;;;;;;;4.00;3.00;;;;;;;;5021927;28;62080;-74
2022/08/29 09:45:31;;;;;;;;;0.67;0.67;;;;;;;;5020632;28;61344;-74
2022/08/29 09:48:30;;;;;;;;;2.00;2.00;;;;;;;;5021056;28;61779;-74
2022/08/29 09:51:12;;;;;;;;;1.67;1.67;;;;;;;;5017838;28;61753;-74
2022/08/29 09:53:38;;;;;;;;;3.33;1.00;;;;;;;;5021131;28;62091;-75
2022/08/29 09:56:08;;;;;;;;;1.00;1.00;;;;;;;;5022444;28;62275;-75
2022/08/29 09:58:38;;;;;;;;;2.00;2.00;;;;;;;;5020378;28;61980;-75
2022/08/29 10:01:14;;;;;;;;;3.00;2.00;;;;;;;;5020806;28;62211;-75
2022/08/29 10:03:42;;;;;;;;;0.67;0.67;;;;;;;;5021592;28;61801;-75
2022/08/29 10:06:12;;;;;;;;;1.33;1.00;;;;;;;;5022005;28;61974;-75
2022/08/29 10:08:38;;;;;;;;;2.00;2.00;;;;;;;;5021809;28;61699;-74
2022/08/29 10:11:05;;;;;;;;;4.33;2.33;;;;;;;;5022300;28;62103;-75
2022/08/29 10:13:46;;;;;;;;;1.67;1.00;;;;;;;;5021509;28;61663;-74
2022/08/29 10:16:17;;;;;;;;;5.00;1.67;;;;;;;;5021499;28;61797;-74
2022/08/29 10:18:46;;;;;;;;;1.67;1.67;;;;;;;;5021410;28;61798;-75
2022/08/29 10:21:14;;;;;;;;;2.33;1.00;;;;;;;;5021818;28;61821;-75
2022/08/29 10:23:58;;;;;;;;;5.67;1.67;;;;;;;;5019451;28;62645;-74
2022/08/29 10:26:53;;;;;;;;;3.67;1.67;;;;;;;;5020559;28;61723;-74
2022/08/29 10:29:37;;;;;;;;;2.00;2.00;;;;;;;;5018464;28;62017;-75
2022/08/29 10:32:21;;;;;;;;;2.00;2.00;;;;;;;;5019408;28;61803;-75
2022/08/29 10:34:59;;;;;;;;;3.67;2.00;;;;;;;;5019153;28;62181;-75
2022/08/29 10:37:43;;;;;;;;;1.00;1.00;;;;;;;;5005892;28;61969;-75
2022/08/29 10:40:08;;;;;;;;;2.67;1.67;;;;;;;;5022671;28;61816;-74
2022/08/29 10:42:35;;;;;;;;;2.67;2.67;;;;;;;;5022751;28;62004;-75
2022/08/29 10:45:03;;;;;;;;;3.00;2.67;;;;;;;;5005149;28;63830;-75
2022/08/29 10:47:35;;;;;;;;;3.00;2.00;;;;;;;;5022162;28;61935;-75
2022/08/29 10:50:19;;;;;;;;;1.00;1.00;;;;;;;;5022190;28;62214;-75
2022/08/29 10:52:53;;;;;;;;;2.00;2.00;;;;;;;;5022775;28;61748;-75
2022/08/29 10:55:18;;;;;;;;;2.33;2.33;;;;;;;;5021663;28;61950;-75
2022/08/29 10:57:43;;;;;;;;;1.67;1.00;;;;;;;;5022063;28;61959;-74
2022/08/29 11:00:11;;;;;;;;;2.67;2.33;;;;;;;;5021727;28;62045;-74
2022/08/29 11:02:51;;;;;;;;;2.33;1.67;;;;;;;;5005625;28;61847;-74
2022/08/29 11:05:30;;;;;;;;;2.00;2.00;;;;;;;;5015919;28;63722;-74
2022/08/29 11:08:05;;;;;;;;;3.67;3.00;;;;;;;;5004437;28;61874;-76
2022/08/29 11:10:39;;;;;;;;;4.00;4.00;;;;;;;;5003478;28;61923;-75
2022/08/29 11:13:23;;;;;;;;;2.67;1.67;;;;;;;;5003413;28;61903;-76
2022/08/29 11:15:51;;;;;;;;;3.67;2.33;;;;;;;;5003649;28;62028;-75
2022/08/29 11:18:22;;;;;;;;;2.33;2.33;;;;;;;;5004267;28;61740;-75
2022/08/29 11:20:50;;;;;;;;;2.33;2.33;;;;;;;;5045569;28;61923;-76
2022/08/29 11:23:39;;;;;;;;;2.00;1.67;;;;;;;;5024012;28;61734;-75
2022/08/29 11:26:15;;;;;;;;;2.00;1.00;;;;;;;;5020254;28;62991;-76
2022/08/29 11:28:44;;;;;;;;;2.00;2.00;;;;;;;;5023834;28;62016;-75
2022/08/29 11:31:29;;;;;;;;;3.00;2.67;;;;;;;;5022889;28;61866;-78
2022/08/29 11:34:14;;;;;;;;;2.67;1.67;;;;;;;;5022743;28;61897;-77
2022/08/29 11:36:59;;;;;;;;;1.67;1.67;;;;;;;;5034767;28;64034;-78
2022/08/29 11:39:43;;;;;;;;;5.33;3.33;;;;;;;;5020819;28;61907;-77
2022/08/29 11:42:10;;;;;;;;;4.33;3.33;;;;;;;;5020121;28;61925;-78
2022/08/29 11:44:43;;;;;;;;;4.67;2.67;;;;;;;;5022608;28;61906;-77
2022/08/29 11:47:27;;;;;;;;;2.67;2.67;;;;;;;;5021230;28;61822;-77
2022/08/29 11:49:52;;;;;;;;;4.00;3.00;;;;;;;;5021737;28;61892;-75
2022/08/29 11:52:24;;;;;;;;;3.00;3.00;;;;;;;;5019934;28;61821;-75
2022/08/29 11:54:53;;;;;;;;;1.67;1.67;;;;;;;;5020323;28;62500;-76
2022/08/29 11:57:18;;;;;;;;;5.00;3.00;;;;;;;;5021485;28;61905;-75
2022/08/29 11:59:55;;;;;;;;;4.33;3.00;;;;;;;;5021719;28;62039;-76
2022/08/29 12:02:27;;;;;;;;;3.00;3.00;;;;;;;;5019454;28;61762;-75
2022/08/29 12:04:55;;;;;;;;;2.00;2.00;;;;;;;;5021809;28;62028;-75
2022/08/29 12:07:31;;;;;;;;;2.00;2.00;;;;;;;;5021115;28;61847;-75
2022/08/29 12:09:58;;;;;;;;;1.50;1.50;;;;;;;;5021849;28;61999;-76
2022/08/29 12:12:38;;;;;;;;;8.00;4.00;;;;;;;;5019574;28;62134;-75
2022/08/29 12:15:22;;;;;;;;;1.33;1.33;;;;;;;;5020146;28;61908;-75
2022/08/29 12:17:47;;;;;;;;;3.00;3.00;;;;;;;;5020310;28;61794;-76
2022/08/29 12:20:49;;;;;;;;;2.33;2.33;;;;;;;;5020294;28;61800;-75
2022/08/29 12:23:26;;;;;;;;;4.33;1.00;;;;;;;;5036983;28;61931;-75
2022/08/29 12:25:53;;;;;;;;;3.33;3.00;;;;;;;;5022237;28;62001;-76
2022/08/29 12:28:22;;;;;;;;;3.00;3.00;;;;;;;;5021302;28;62233;-75
2022/08/29 12:30:56;;;;;;;;;2.33;2.33;;;;;;;;5021367;28;61889;-76
2022/08/29 12:33:40;;;;;;;;;5.33;3.33;;;;;;;;5020466;28;62129;-76
2022/08/29 12:36:06;;;;;;;;;2.67;2.67;;;;;;;;5019766;28;61765;-76
2022/08/29 12:38:50;;;;;;;;;4.33;4.00;;;;;;;;5020600;28;62444;-76
2022/08/29 12:41:30;;;;;;;;;6.00;2.00;;;;;;;;5018532;28;62190;-76
2022/08/29 12:43:56;;;;;;;;;3.00;3.00;;;;;;;;5022732;28;61783;-75
2022/08/29 12:46:27;;;;;;;;;3.00;2.00;;;;;;;;5021878;28;61878;-77
2022/08/29 12:48:58;;;;;;;;;2.00;2.00;;;;;;;;5021528;28;62833;-76
2022/08/29 12:51:33;;;;;;;;;2.67;2.67;;;;;;;;5020377;28;61798;-76
2022/08/29 12:53:58;;;;;;;;;2.33;2.33;;;;;;;;5021488;28;62233;-76
2022/08/29 12:56:25;;;;;;;;;2.00;2.00;;;;;;;;5020140;28;62247;-76
2022/08/29 12:58:50;;;;;;;;;4.00;4.00;;;;;;;;5018296;28;63599;-76
2022/08/29 13:01:27;;;;;;;;;4.67;2.67;;;;;;;;5021005;28;61907;-76
2022/08/29 13:03:56;;;;;;;;;5.67;2.00;;;;;;;;5018623;28;61892;-76
2022/08/29 13:06:22;;;;;;;;;4.00;3.00;;;;;;;;5022334;28;62030;-76
2022/08/29 13:08:48;;;;;;;;;4.00;3.00;;;;;;;;5020320;28;64758;-76
2022/08/29 13:11:18;;;;;;;;;5.00;3.00;;;;;;;;5022330;28;61862;-76
2022/08/29 13:13:43;;;;;;;;;2.00;2.00;;;;;;;;5020858;28;61704;-76
2022/08/29 13:16:21;;;;;;;;;3.67;2.00;;;;;;;;5022064;28;61873;-75
2022/08/29 13:18:46;;;;;;;;;4.00;4.00;;;;;;;;5020357;28;62910;-75
2022/08/29 13:21:17;;;;;;;;;3.67;1.33;;;;;;;;5020616;28;61761;-75
2022/08/29 13:23:46;;;;;;;;;5.00;4.00;;;;;;;;5020792;28;61927;-75
2022/08/29 13:26:15;;;;;;;;;2.33;2.33;;;;;;;;5020757;28;61814;-75
2022/08/29 13:28:45;;;;;;;;;3.00;3.00;;;;;;;;5019698;28;63650;-75
2022/08/29 13:31:13;;;;;;;;;3.00;2.33;;;;;;;;5020410;28;61964;-75
2022/08/29 13:33:45;;;;;;;;;7.00;3.00;;;;;;;;5020652;28;62037;-74
2022/08/29 13:36:28;;;;;;;;;3.00;3.00;;;;;;;;5022101;28;61731;-75
2022/08/29 13:39:17;;;;;;;;;2.67;2.67;;;;;;;;5019442;28;64002;-75
2022/08/29 13:41:46;;;;;;;;;2.33;2.33;;;;;;;;5052090;28;61848;-76
2022/08/29 13:44:19;;;;;;;;;4.67;4.00;;;;;;;;5020484;28;61928;-76
2022/08/29 13:46:46;;;;;;;;;5.67;3.00;;;;;;;;5022433;28;62272;-75
2022/08/29 13:49:17;;;;;;;;;3.00;3.00;;;;;;;;5019063;28;64909;-76
2022/08/29 13:51:42;;;;;;;;;3.00;2.00;;;;;;;;5021782;28;61853;-75
2022/08/29 13:54:08;;;;;;;;;6.00;4.00;;;;;;;;5020712;28;61846;-76
2022/08/29 13:56:34;;;;;;;;;3.00;3.00;;;;;;;;5020113;28;61743;-75
2022/08/29 13:59:00;;;;;;;;;4.00;4.00;;;;;;;;5019485;28;64486;-75
2022/08/29 14:01:26;;;;;;;;;1.67;1.67;;;;;;;;5020465;28;61778;-75
2022/08/29 14:03:51;;;;;;;;;4.00;4.00;;;;;;;;5020612;28;61831;-76
2022/08/29 14:06:18;;;;;;;;;7.00;5.00;;;;;;;;5022049;28;61748;-74
2022/08/29 14:08:43;;;;;;;;;3.00;2.00;;;;;;;;5021187;28;62073;-75
2022/08/29 14:11:08;;;;;;;;;5.67;4.00;;;;;;;;5023295;28;62255;-75
2022/08/29 14:13:34;;;;;;;;;4.00;3.33;;;;;;;;5023842;28;62066;-75
2022/08/29 14:15:59;;;;;;;;;3.00;3.00;;;;;;;;5025559;28;61892;-75
2022/08/29 14:18:24;;;;;;;;;3.00;2.67;;;;;;;;5024089;28;62931;-75
2022/08/29 14:20:50;;;;;;;;;2.00;2.00;;;;;;;;5024600;28;61778;-75
2022/08/29 14:23:15;;;;;;;;;5.33;3.33;;;;;;;;5025025;28;61779;-77
2022/08/29 14:25:40;;;;;;;;;5.67;4.00;;;;;;;;5023932;28;62201;-77
2022/08/29 14:28:05;;;;;;;;;3.67;3.00;;;;;;;;5023591;28;63824;-76
2022/08/29 14:30:31;;;;;;;;;3.00;3.00;;;;;;;;5025374;28;61914;-76
2022/08/29 14:32:56;;;;;;;;;1.67;1.67;;;;;;;;5025444;28;62134;-78
2022/08/29 14:35:21;;;;;;;;;0.00;0.00;;;;;;;;5024110;28;62160;-77
2022/08/29 14:37:47;;;;;;;;;2.33;2.33;;;;;;;;5023463;28;63577;-76
2022/08/29 14:40:12;;;;;;;;;2.67;2.67;;;;;;;;5021989;28;61803;-76
2022/08/29 14:42:38;;;;;;;;;3.67;2.00;;;;;;;;5023556;28;62151;-75
2022/08/29 14:45:04;;;;;;;;;3.00;3.00;;;;;;;;5023620;28;61970;-76
2022/08/29 14:47:30;;;;;;;;;3.67;2.33;;;;;;;;5021325;28;62805;-76
2022/08/29 14:49:55;;;;;;;;;3.67;2.67;;;;;;;;5020012;28;61806;-76
2022/08/29 14:52:21;;;;;;;;;2.00;2.00;;;;;;;;5020968;28;61898;-76
2022/08/29 14:54:48;;;;;;;;;3.00;2.67;;;;;;;;5021986;28;61843;-76